createdAt,value
2023-02-19T05:00:30.472Z,0.00
2023-02-19T05:01:31.504Z,0.00
2023-02-19T05:02:31.489Z,0.00
2023-02-19T05:03:31.452Z,0.00
2023-02-19T05:04:31.528Z,0.00
2023-02-19T05:05:31.429Z,0.00
2023-02-19T05:06:31.440Z,0.00
2023-02-19T05:07:31.402Z,0.00
2023-02-19T05:08:31.399Z,0.00
2023-02-19T05:09:31.379Z,0.00
2023-02-19T05:10:31.382Z,0.00
2023-02-19T05:11:31.375Z,0.00
2023-02-19T05:12:31.361Z,0.00
2023-02-19T05:13:31.357Z,0.00
2023-02-19T05:14:31.329Z,0.00
2023-02-19T05:15:31.329Z,0.00
2023-02-19T05:16:31.336Z,0.00
2023-02-19T05:17:31.295Z,0.00
2023-02-19T05:18:31.314Z,0.00
2023-02-19T05:19:31.313Z,0.00
2023-02-19T05:20:31.284Z,0.00
2023-02-19T05:21:31.263Z,0.00
2023-02-19T05:22:31.270Z,0.00
2023-02-19T05:23:31.235Z,0.00
2023-02-19T05:24:31.222Z,0.00
2023-02-19T05:25:31.248Z,0.00
2023-02-19T05:26:31.236Z,0.00
2023-02-19T05:27:31.183Z,0.00
2023-02-19T05:28:31.205Z,0.00
2023-02-19T05:29:31.208Z,0.00
2023-02-19T05:30:31.174Z,0.00
2023-02-19T05:31:31.346Z,0.00
2023-02-19T05:32:31.135Z,0.00
2023-02-19T05:33:31.125Z,0.00
2023-02-19T05:34:31.119Z,0.00
2023-02-19T05:35:31.120Z,0.00
2023-02-19T05:36:31.098Z,0.00
2023-02-19T05:37:31.118Z,0.00
2023-02-19T05:38:31.083Z,0.00
2023-02-19T05:39:31.060Z,0.00
2023-02-19T05:40:31.065Z,0.00
2023-02-19T05:41:31.087Z,0.00
2023-02-19T05:42:31.058Z,0.00
2023-02-19T05:43:31.023Z,0.00
2023-02-19T05:44:31.020Z,0.00
2023-02-19T05:45:30.994Z,0.00
2023-02-19T05:46:31.528Z,0.00
2023-02-19T05:47:30.947Z,1.00
2023-02-19T05:48:30.976Z,0.00
2023-02-19T05:49:30.912Z,1.00
2023-02-19T05:50:30.916Z,1.00
2023-02-19T05:51:30.918Z,1.00
2023-02-19T05:52:30.871Z,1.00
2023-02-19T05:53:30.888Z,1.00
2023-02-19T05:54:30.841Z,2.00
2023-02-19T05:55:30.856Z,2.00
2023-02-19T05:56:30.857Z,3.00
2023-02-19T05:57:30.812Z,1.00
2023-02-19T05:58:30.823Z,2.00
2023-02-19T05:59:30.808Z,3.00
2023-02-19T06:00:30.797Z,2.00
2023-02-19T06:01:30.789Z,6.00
2023-02-19T06:02:30.771Z,7.00
2023-02-19T06:03:30.766Z,8.00
2023-02-19T06:04:30.750Z,15.00
2023-02-19T06:05:30.736Z,11.00
2023-02-19T06:06:30.738Z,15.00
2023-02-19T06:07:30.736Z,19.00
2023-02-19T06:08:30.717Z,19.00
2023-02-19T06:09:30.687Z,23.00
2023-02-19T06:10:30.696Z,32.00
2023-02-19T06:11:30.680Z,34.00
2023-02-19T06:12:30.661Z,37.00
2023-02-19T06:13:30.646Z,39.00
2023-02-19T06:14:30.681Z,43.00
2023-02-19T06:15:30.640Z,48.00
2023-02-19T06:16:30.625Z,53.00
2023-02-19T06:17:30.599Z,61.00
2023-02-19T06:18:30.622Z,68.00
2023-02-19T06:19:30.598Z,75.00
2023-02-19T06:20:30.588Z,76.00
2023-02-19T06:21:30.580Z,81.00
2023-02-19T06:22:30.554Z,91.00
2023-02-19T06:23:30.536Z,93.00
2023-02-19T06:24:30.605Z,99.00
2023-02-19T06:25:30.517Z,106.00
2023-02-19T06:26:30.562Z,114.00
2023-02-19T06:27:30.506Z,122.00
2023-02-19T06:28:30.506Z,127.00
2023-02-19T06:29:30.490Z,139.00
2023-02-19T06:30:30.514Z,144.00
2023-02-19T06:31:30.570Z,151.00
2023-02-19T06:32:30.504Z,160.00
2023-02-19T06:33:30.440Z,159.00
2023-02-19T06:34:30.446Z,153.00
2023-02-19T06:35:30.421Z,159.00
2023-02-19T06:36:30.454Z,162.00
2023-02-19T06:37:30.399Z,169.00
2023-02-19T06:38:30.383Z,172.00
2023-02-19T06:39:30.372Z,186.00
2023-02-19T06:40:30.361Z,204.00
2023-02-19T06:41:30.372Z,218.00
2023-02-19T06:42:30.340Z,226.00
2023-02-19T06:43:30.328Z,239.00
2023-02-19T06:44:30.330Z,241.00
2023-02-19T06:45:30.309Z,248.00
2023-02-19T06:46:30.371Z,249.00
2023-02-19T06:47:30.295Z,249.00
2023-02-19T06:48:30.288Z,245.00
2023-02-19T06:49:30.265Z,253.00
2023-02-19T06:50:30.263Z,274.00
2023-02-19T06:51:30.269Z,307.00
2023-02-19T06:52:30.236Z,325.00
2023-02-19T06:53:30.240Z,345.00
2023-02-19T06:54:30.227Z,376.00
2023-02-19T06:55:30.224Z,415.00
2023-02-19T06:56:30.204Z,455.00
2023-02-19T06:57:30.209Z,484.00
2023-02-19T06:58:30.195Z,517.00
2023-02-19T06:59:30.176Z,552.00
2023-02-19T07:00:30.236Z,577.00
2023-02-19T07:01:30.141Z,603.00
2023-02-19T07:02:30.148Z,623.00
2023-02-19T07:03:30.137Z,633.00
2023-02-19T07:04:30.194Z,667.00
2023-02-19T07:05:30.113Z,713.00
2023-02-19T07:06:30.090Z,775.00
2023-02-19T07:07:30.126Z,835.00
2023-02-19T07:08:30.073Z,893.00
2023-02-19T07:09:30.131Z,977.00
2023-02-19T07:10:30.124Z,1025.00
2023-02-19T07:11:30.128Z,1036.00
2023-02-19T07:12:30.057Z,1023.00
2023-02-19T07:13:30.026Z,1047.00
2023-02-19T07:14:29.990Z,1089.00
2023-02-19T07:15:29.994Z,1103.00
2023-02-19T07:16:30.162Z,1087.00
2023-02-19T07:17:30.133Z,1063.00
2023-02-19T07:18:29.963Z,1118.00
2023-02-19T07:19:29.944Z,1062.00
2023-02-19T07:20:29.947Z,1091.00
2023-02-19T07:21:29.925Z,1132.00
2023-02-19T07:22:29.958Z,1195.00
2023-02-19T07:23:29.921Z,1294.00
2023-02-19T07:24:29.885Z,1385.00
2023-02-19T07:25:29.899Z,1501.00
2023-02-19T07:26:29.872Z,1635.00
2023-02-19T07:27:29.884Z,1764.00
2023-02-19T07:28:29.868Z,1822.00
2023-02-19T07:29:29.866Z,1850.00
2023-02-19T07:30:29.902Z,2068.00
2023-02-19T07:31:30.012Z,2111.00
2023-02-19T07:32:29.860Z,2129.00
2023-02-19T07:33:29.843Z,2271.00
2023-02-19T07:34:29.802Z,2341.00
2023-02-19T07:35:29.824Z,2186.00
2023-02-19T07:36:29.774Z,2158.00
2023-02-19T07:37:29.775Z,2069.00
2023-02-19T07:38:29.763Z,1941.00
2023-02-19T07:39:29.777Z,1909.00
2023-02-19T07:40:29.747Z,2011.00
2023-02-19T07:41:29.738Z,2338.00
2023-02-19T07:42:29.752Z,2315.00
2023-02-19T07:43:29.699Z,2166.00
2023-02-19T07:44:29.704Z,2298.00
2023-02-19T07:45:29.713Z,2450.00
2023-02-19T07:46:29.683Z,2830.00
2023-02-19T07:47:29.703Z,3060.00
2023-02-19T07:48:29.641Z,3180.00
2023-02-19T07:49:29.722Z,3475.00
2023-02-19T07:50:29.615Z,3800.00
2023-02-19T07:51:29.627Z,3690.00
2023-02-19T07:52:29.694Z,3506.00
2023-02-19T07:53:29.621Z,3765.00
2023-02-19T07:54:29.617Z,4149.00
2023-02-19T07:55:29.589Z,4018.00
2023-02-19T07:56:29.674Z,5557.00
2023-02-19T07:57:29.607Z,6143.00
2023-02-19T07:58:29.557Z,4886.00
2023-02-19T07:59:29.541Z,4215.00
2023-02-19T08:00:29.523Z,4193.00
2023-02-19T08:01:29.587Z,8002.00
2023-02-19T08:02:29.524Z,8023.00
2023-02-19T08:03:29.547Z,9636.00
2023-02-19T08:04:29.510Z,10904.00
2023-02-19T08:05:29.493Z,11962.00
2023-02-19T08:06:29.514Z,10793.00
2023-02-19T08:07:29.500Z,11100.00
2023-02-19T08:08:29.445Z,9979.00
2023-02-19T08:09:29.530Z,14170.00
2023-02-19T08:10:29.488Z,9862.00
2023-02-19T08:11:29.420Z,11084.00
2023-02-19T08:12:29.443Z,9396.00
2023-02-19T08:13:29.483Z,11315.00
2023-02-19T08:14:29.398Z,17065.00
2023-02-19T08:15:29.388Z,18351.00
2023-02-19T08:16:42.608Z,15387.00
2023-02-19T08:17:29.382Z,19975.00
2023-02-19T08:18:29.443Z,13198.00
2023-02-19T08:19:29.381Z,11897.00
2023-02-19T08:20:29.548Z,10306.00
2023-02-19T08:21:29.534Z,14235.00
2023-02-19T08:22:29.285Z,12115.00
2023-02-19T08:23:29.276Z,9726.00
2023-02-19T08:24:29.266Z,6494.00
2023-02-19T08:25:29.268Z,11818.00
2023-02-19T08:26:29.456Z,16230.00
2023-02-19T08:27:29.259Z,15372.00
2023-02-19T08:28:29.793Z,9531.00
2023-02-19T08:29:29.231Z,9487.00
2023-02-19T08:30:29.445Z,15623.00
2023-02-19T08:31:29.340Z,16827.00
2023-02-19T08:32:29.198Z,20953.00
2023-02-19T08:33:29.376Z,9913.00
2023-02-19T08:34:29.167Z,11356.00
2023-02-19T08:35:29.163Z,17528.00
2023-02-19T08:36:29.129Z,12898.00
2023-02-19T08:37:29.152Z,12926.00
2023-02-19T08:38:29.156Z,13112.00
2023-02-19T08:39:29.118Z,1904.00
2023-02-19T08:40:29.086Z,4664.00
2023-02-19T08:41:29.140Z,19239.00
2023-02-19T08:42:29.158Z,28597.00
2023-02-19T08:43:29.100Z,21707.00
2023-02-19T08:44:29.089Z,13484.00
2023-02-19T08:45:29.027Z,10087.00
2023-02-19T08:46:29.022Z,2716.00
2023-02-19T08:47:29.116Z,15916.00
2023-02-19T08:48:29.123Z,3246.00
2023-02-19T08:49:29.018Z,4466.00
2023-02-19T08:50:29.039Z,22736.00
2023-02-19T08:51:29.020Z,26584.00
2023-02-19T08:52:28.948Z,5260.00
2023-02-19T08:53:29.023Z,2442.00
2023-02-19T08:54:28.971Z,17902.00
2023-02-19T08:55:29.002Z,2535.00
2023-02-19T08:56:28.915Z,20634.00
2023-02-19T08:57:28.935Z,11693.00
2023-02-19T08:58:28.973Z,4837.00
2023-02-19T08:59:28.904Z,5981.00
2023-02-19T09:00:28.869Z,6423.00
2023-02-19T09:01:28.899Z,6587.00
2023-02-19T09:02:28.857Z,6585.00
2023-02-19T09:03:28.836Z,5974.00
2023-02-19T09:04:28.893Z,5884.00
2023-02-19T09:05:28.812Z,3994.00
2023-02-19T09:06:28.858Z,6681.00
2023-02-19T09:07:28.800Z,5531.00
2023-02-19T09:08:28.821Z,76911.00
2023-02-19T09:09:28.787Z,58764.00
2023-02-19T09:10:28.811Z,3708.00
2023-02-19T09:11:28.821Z,30202.00
2023-02-19T09:12:28.836Z,37223.00
2023-02-19T09:13:28.770Z,18512.00
2023-02-19T09:14:28.716Z,6748.00
2023-02-19T09:15:28.750Z,4642.00
2023-02-19T09:16:28.686Z,2619.00
2023-02-19T09:17:28.678Z,3094.00
2023-02-19T09:18:28.723Z,1544.00
2023-02-19T09:19:28.668Z,10144.00
2023-02-19T09:20:28.654Z,7743.00
2023-02-19T09:21:28.668Z,4416.00
2023-02-19T09:22:28.648Z,2845.00
2023-02-19T09:23:28.677Z,3175.00
2023-02-19T09:24:28.684Z,5635.00
2023-02-19T09:25:28.624Z,4562.00
2023-02-19T09:26:28.586Z,1724.00
2023-02-19T09:27:28.584Z,2242.00
2023-02-19T09:28:28.581Z,16360.00
2023-02-19T09:29:28.601Z,16192.00
2023-02-19T09:30:28.597Z,9984.00
2023-02-19T09:31:28.668Z,12858.00
2023-02-19T09:32:28.534Z,2468.00
2023-02-19T09:33:28.521Z,11267.00
2023-02-19T09:34:28.517Z,3305.00
2023-02-19T09:35:28.492Z,5736.00
2023-02-19T09:36:28.480Z,7073.00
2023-02-19T09:37:28.469Z,6283.00
2023-02-19T09:38:28.477Z,10966.00
2023-02-19T09:39:28.484Z,7714.00
2023-02-19T09:40:28.426Z,5444.00
2023-02-19T09:41:28.427Z,6911.00
2023-02-19T09:42:28.425Z,6959.00
2023-02-19T09:43:28.438Z,4770.00
2023-02-19T09:44:28.418Z,3019.00
2023-02-19T09:45:28.391Z,4140.00
2023-02-19T09:46:28.436Z,8209.00
2023-02-19T09:47:28.396Z,4135.00
2023-02-19T09:48:28.406Z,3131.00
2023-02-19T09:49:28.451Z,7025.00
2023-02-19T09:50:28.384Z,7023.00
2023-02-19T09:51:28.352Z,8355.00
2023-02-19T09:52:28.313Z,7648.00
2023-02-19T09:53:28.316Z,5380.00
2023-02-19T09:54:28.317Z,4978.00
2023-02-19T09:55:28.331Z,5855.00
2023-02-19T09:56:28.288Z,4738.00
2023-02-19T09:57:28.255Z,5041.00
2023-02-19T09:58:28.266Z,3776.00
2023-02-19T09:59:28.285Z,4407.00
2023-02-19T10:00:28.241Z,58135.00
2023-02-19T10:01:28.254Z,4808.00
2023-02-19T10:02:28.201Z,2695.00
2023-02-19T10:03:28.232Z,7990.00
2023-02-19T10:04:28.219Z,82618.00
2023-02-19T10:05:28.266Z,58103.00
2023-02-19T10:06:28.197Z,82239.00
2023-02-19T10:07:28.181Z,57766.00
2023-02-19T10:08:28.152Z,4691.00
2023-02-19T10:09:28.161Z,1905.00
2023-02-19T10:10:28.149Z,79366.00
2023-02-19T10:11:28.122Z,73505.00
2023-02-19T10:12:28.107Z,84381.00
2023-02-19T10:13:28.079Z,82420.00
2023-02-19T10:14:28.116Z,83216.00
2023-02-19T10:15:28.081Z,80948.00
2023-02-19T10:16:28.076Z,82509.00
2023-02-19T10:17:28.071Z,82489.00
2023-02-19T10:18:28.072Z,80002.00
2023-02-19T10:19:28.041Z,59001.00
2023-02-19T10:20:28.047Z,6133.00
2023-02-19T10:21:28.022Z,7363.00
2023-02-19T10:22:28.000Z,5168.00
2023-02-19T10:23:27.999Z,11951.00
2023-02-19T10:24:27.968Z,7302.00
2023-02-19T10:25:27.978Z,8980.00
2023-02-19T10:26:27.986Z,6452.00
2023-02-19T10:27:27.940Z,4434.00
2023-02-19T10:28:27.939Z,77512.00
2023-02-19T10:29:27.936Z,66184.00
2023-02-19T10:30:27.942Z,19708.00
2023-02-19T10:31:28.035Z,10364.00
2023-02-19T10:32:27.876Z,5577.00
2023-02-19T10:33:27.913Z,4801.00
2023-02-19T10:34:27.941Z,3612.00
2023-02-19T10:35:27.868Z,81202.00
2023-02-19T10:36:29.847Z,58238.00
2023-02-19T10:37:27.811Z,2410.00
2023-02-19T10:38:27.808Z,16100.00
2023-02-19T10:39:27.845Z,7277.00
2023-02-19T10:40:27.821Z,81559.00
2023-02-19T10:41:27.781Z,63790.00
2023-02-19T10:42:27.766Z,14881.00
2023-02-19T10:43:27.767Z,5366.00
2023-02-19T10:44:27.752Z,6503.00
2023-02-19T10:45:27.751Z,7170.00
2023-02-19T10:46:27.761Z,4384.00
2023-02-19T10:47:27.738Z,3001.00
2023-02-19T10:48:27.704Z,79267.00
2023-02-19T10:49:27.760Z,60500.00
2023-02-19T10:50:27.715Z,5448.00
2023-02-19T10:51:27.772Z,59425.00
2023-02-19T10:52:27.674Z,5369.00
2023-02-19T10:53:27.659Z,75068.00
2023-02-19T10:54:27.670Z,58967.00
2023-02-19T10:55:27.645Z,4244.00
2023-02-19T10:56:27.620Z,82826.00
2023-02-19T10:57:27.616Z,81680.00
2023-02-19T10:58:27.611Z,59928.00
2023-02-19T10:59:27.643Z,3215.00
2023-02-19T11:00:27.627Z,7865.00
2023-02-19T11:01:27.608Z,79969.00
2023-02-19T11:02:27.559Z,64816.00
2023-02-19T11:03:27.553Z,7256.00
2023-02-19T11:04:27.594Z,59902.00
2023-02-19T11:05:27.532Z,8868.00
2023-02-19T11:06:27.507Z,5321.00
2023-02-19T11:07:27.490Z,4108.00
2023-02-19T11:08:27.498Z,82090.00
2023-02-19T11:09:27.508Z,73618.00
2023-02-19T11:10:27.512Z,30166.00
2023-02-19T11:11:27.457Z,75058.00
2023-02-19T11:12:27.424Z,81077.00
2023-02-19T11:13:27.427Z,69822.00
2023-02-19T11:14:27.584Z,31880.00
2023-02-19T11:15:27.436Z,19024.00
2023-02-19T11:16:27.493Z,10818.00
2023-02-19T11:17:27.436Z,3632.00
2023-02-19T11:18:27.384Z,59231.00
2023-02-19T11:19:27.360Z,5064.00
2023-02-19T11:20:27.366Z,2815.00
2023-02-19T11:21:27.382Z,18999.00
2023-02-19T11:22:27.372Z,5316.00
2023-02-19T11:23:27.329Z,2276.00
2023-02-19T11:24:27.351Z,15339.00
2023-02-19T11:25:27.305Z,2604.00
2023-02-19T11:26:27.334Z,3370.00
2023-02-19T11:27:27.290Z,4050.00
2023-02-19T11:28:27.278Z,14403.00
2023-02-19T11:29:27.243Z,5938.00
2023-02-19T11:30:27.293Z,81238.00
2023-02-19T11:31:27.405Z,60381.00
2023-02-19T11:32:27.352Z,10858.00
2023-02-19T11:33:27.341Z,7248.00
2023-02-19T11:34:27.197Z,7332.00
2023-02-19T11:35:27.206Z,82021.00
2023-02-19T11:36:29.472Z,80206.00
2023-02-19T11:37:27.164Z,60352.00
2023-02-19T11:38:27.151Z,4907.00
2023-02-19T11:39:27.157Z,60420.00
2023-02-19T11:40:27.136Z,9682.00
2023-02-19T11:41:27.174Z,3196.00
2023-02-19T11:42:29.268Z,10802.00
2023-02-19T11:43:27.120Z,2548.00
2023-02-19T11:44:27.098Z,6998.00
2023-02-19T11:45:27.100Z,64790.00
2023-02-19T11:46:27.114Z,21071.00
2023-02-19T11:47:27.071Z,3653.00
2023-02-19T11:48:28.623Z,25166.00
2023-02-19T11:49:27.057Z,8019.00
2023-02-19T11:50:27.038Z,6833.00
2023-02-19T11:51:27.015Z,5135.00
2023-02-19T11:52:27.044Z,4953.00
2023-02-19T11:53:27.035Z,3797.00
2023-02-19T11:54:27.010Z,3609.00
2023-02-19T11:55:27.005Z,80200.00
2023-02-19T11:56:26.958Z,80423.00
2023-02-19T11:57:26.969Z,70581.00
2023-02-19T11:58:26.969Z,31507.00
2023-02-19T11:59:27.585Z,13513.00
2023-02-19T12:00:26.969Z,14430.00
2023-02-19T12:01:26.904Z,9631.00
2023-02-19T12:02:26.929Z,7499.00
2023-02-19T12:03:26.944Z,3449.00
2023-02-19T12:04:26.891Z,27951.00
2023-02-19T12:05:26.945Z,14551.00
2023-02-19T12:06:26.888Z,75369.00
2023-02-19T12:07:26.836Z,80921.00
2023-02-19T12:08:26.870Z,76996.00
2023-02-19T12:09:26.805Z,61328.00
2023-02-19T12:10:26.814Z,11302.00
2023-02-19T12:11:26.839Z,5174.00
2023-02-19T12:12:26.794Z,4821.00
2023-02-19T12:13:26.802Z,4300.00
2023-02-19T12:14:26.766Z,3856.00
2023-02-19T12:15:26.749Z,3342.00
2023-02-19T12:16:26.800Z,4952.00
2023-02-19T12:17:26.761Z,3803.00
2023-02-19T12:18:26.726Z,3617.00
2023-02-19T12:19:26.732Z,23741.00
2023-02-19T12:20:26.717Z,14283.00
2023-02-19T12:21:26.689Z,12241.00
2023-02-19T12:22:26.689Z,2559.00
2023-02-19T12:23:26.691Z,5159.00
2023-02-19T12:24:26.656Z,8109.00
2023-02-19T12:25:26.645Z,12672.00
2023-02-19T12:26:26.626Z,79022.00
2023-02-19T12:27:26.609Z,77301.00
2023-02-19T12:28:26.609Z,73259.00
2023-02-19T12:29:26.607Z,29350.00
2023-02-19T12:30:26.679Z,3725.00
2023-02-19T12:31:26.604Z,17963.00
2023-02-19T12:32:26.566Z,27473.00
2023-02-19T12:33:26.543Z,76066.00
2023-02-19T12:34:26.562Z,72747.00
2023-02-19T12:35:26.559Z,22958.00
2023-02-19T12:36:26.532Z,29456.00
2023-02-19T12:37:26.521Z,75836.00
2023-02-19T12:38:26.488Z,71640.00
2023-02-19T12:39:26.475Z,16390.00
2023-02-19T12:40:26.489Z,76751.00
2023-02-19T12:41:26.477Z,78422.00
2023-02-19T12:42:26.448Z,81287.00
2023-02-19T12:43:26.425Z,80520.00
2023-02-19T12:44:26.430Z,77912.00
2023-02-19T12:45:26.413Z,78310.00
2023-02-19T12:46:26.474Z,77063.00
2023-02-19T12:47:26.405Z,73550.00
2023-02-19T12:48:26.391Z,22737.00
2023-02-19T12:49:26.367Z,60133.00
2023-02-19T12:50:26.392Z,9139.00
2023-02-19T12:51:26.356Z,3003.00
2023-02-19T12:52:26.351Z,28414.00
2023-02-19T12:53:27.107Z,18312.00
2023-02-19T12:54:26.320Z,6132.00
2023-02-19T12:55:26.335Z,25062.00
2023-02-19T12:56:26.309Z,24157.00
2023-02-19T12:57:26.295Z,5367.00
2023-02-19T12:58:26.303Z,9284.00
2023-02-19T12:59:26.266Z,5424.00
2023-02-19T13:00:26.276Z,4349.00
2023-02-19T13:01:26.328Z,3606.00
2023-02-19T13:02:26.240Z,4617.00
2023-02-19T13:03:26.229Z,4337.00
2023-02-19T13:04:26.228Z,3899.00
2023-02-19T13:05:26.217Z,3920.00
2023-02-19T13:06:26.187Z,3654.00
2023-02-19T13:07:26.182Z,3214.00
2023-02-19T13:08:26.175Z,2527.00
2023-02-19T13:09:26.162Z,3886.00
2023-02-19T13:10:26.175Z,3445.00
2023-02-19T13:11:26.138Z,3066.00
2023-02-19T13:12:26.132Z,2775.00
2023-02-19T13:13:26.118Z,2561.00
2023-02-19T13:14:26.110Z,2429.00
2023-02-19T13:15:26.124Z,2392.00
2023-02-19T13:16:26.110Z,2583.00
2023-02-19T13:17:26.069Z,2777.00
2023-02-19T13:18:26.069Z,2687.00
2023-02-19T13:19:26.066Z,2365.00
2023-02-19T13:20:26.062Z,3734.00
2023-02-19T13:21:26.054Z,2919.00
2023-02-19T13:22:26.068Z,29818.00
2023-02-19T13:23:26.016Z,17588.00
2023-02-19T13:24:26.007Z,82412.00
2023-02-19T13:25:25.984Z,78984.00
2023-02-19T13:26:26.015Z,73892.00
2023-02-19T13:27:25.984Z,77863.00
2023-02-19T13:28:25.969Z,79814.00
2023-02-19T13:29:25.972Z,77893.00
2023-02-19T13:30:25.983Z,74465.00
2023-02-19T13:31:26.000Z,66607.00
2023-02-19T13:32:25.914Z,18933.00
2023-02-19T13:33:25.894Z,3065.00
2023-02-19T13:34:25.883Z,6072.00
2023-02-19T13:35:25.885Z,21088.00
2023-02-19T13:36:25.868Z,72304.00
2023-02-19T13:37:25.877Z,30197.00
2023-02-19T13:38:26.563Z,23823.00
2023-02-19T13:39:27.045Z,25003.00
2023-02-19T13:40:25.831Z,26390.00
2023-02-19T13:41:25.799Z,26629.00
2023-02-19T13:42:25.819Z,11379.00
2023-02-19T13:43:25.791Z,4191.00
2023-02-19T13:44:25.879Z,4892.00
2023-02-19T13:45:25.771Z,1754.00
2023-02-19T13:46:25.818Z,11329.00
2023-02-19T13:47:25.752Z,3970.00
2023-02-19T13:48:25.736Z,3786.00
2023-02-19T13:49:25.729Z,2945.00
2023-02-19T13:50:25.720Z,1323.00
2023-02-19T13:51:25.707Z,10425.00
2023-02-19T13:52:25.723Z,8050.00
2023-02-19T13:53:25.692Z,7433.00
2023-02-19T13:54:25.718Z,5593.00
2023-02-19T13:55:25.657Z,3790.00
2023-02-19T13:56:25.651Z,3237.00
2023-02-19T13:57:25.631Z,3069.00
2023-02-19T13:58:25.745Z,2936.00
2023-02-19T13:59:25.617Z,2605.00
2023-02-19T14:00:25.657Z,2484.00
2023-02-19T14:01:25.621Z,2265.00
2023-02-19T14:02:25.600Z,2421.00
2023-02-19T14:03:25.615Z,2846.00
2023-02-19T14:04:25.605Z,2447.00
2023-02-19T14:05:25.542Z,2310.00
2023-02-19T14:06:27.849Z,2267.00
2023-02-19T14:07:25.526Z,2187.00
2023-02-19T14:08:25.529Z,2427.00
2023-02-19T14:09:25.578Z,2042.00
2023-02-19T14:10:25.518Z,2938.00
2023-02-19T14:11:25.523Z,3005.00
2023-02-19T14:12:25.495Z,2311.00
2023-02-19T14:13:25.504Z,2156.00
2023-02-19T14:14:25.471Z,1955.00
2023-02-19T14:15:25.518Z,1664.00
2023-02-19T14:16:25.432Z,1515.00
2023-02-19T14:17:25.436Z,1922.00
2023-02-19T14:18:25.410Z,2030.00
2023-02-19T14:19:25.419Z,1764.00
2023-02-19T14:20:25.409Z,2592.00
2023-02-19T14:21:25.384Z,16195.00
2023-02-19T14:22:25.381Z,18520.00
2023-02-19T14:23:25.352Z,4275.00
2023-02-19T14:24:25.468Z,2600.00
2023-02-19T14:25:25.354Z,2520.00
2023-02-19T14:26:25.333Z,2482.00
2023-02-19T14:27:25.343Z,2395.00
2023-02-19T14:28:25.322Z,2854.00
2023-02-19T14:29:25.306Z,3204.00
2023-02-19T14:30:25.294Z,3403.00
2023-02-19T14:31:25.394Z,3242.00
2023-02-19T14:32:25.310Z,3020.00
2023-02-19T14:33:25.242Z,2946.00
2023-02-19T14:34:25.261Z,2624.00
2023-02-19T14:35:25.282Z,2367.00
2023-02-19T14:36:25.258Z,2239.00
2023-02-19T14:37:25.256Z,2250.00
2023-02-19T14:38:25.220Z,2266.00
2023-02-19T14:39:25.171Z,2105.00
2023-02-19T14:40:25.172Z,1997.00
2023-02-19T14:41:25.191Z,1986.00
2023-02-19T14:42:25.190Z,2009.00
2023-02-19T14:43:25.165Z,2039.00
2023-02-19T14:44:25.135Z,1976.00
2023-02-19T14:45:25.111Z,1772.00
2023-02-19T14:46:25.156Z,2055.00
2023-02-19T14:47:25.108Z,3042.00
2023-02-19T14:48:25.277Z,2549.00
2023-02-19T14:49:25.221Z,2337.00
2023-02-19T14:50:25.138Z,2061.00
2023-02-19T14:51:25.091Z,2348.00
2023-02-19T14:52:25.111Z,2136.00
2023-02-19T14:53:25.065Z,1541.00
2023-02-19T14:54:25.017Z,2283.00
2023-02-19T14:55:25.015Z,2474.00
2023-02-19T14:56:25.039Z,2291.00
2023-02-19T14:57:25.000Z,2761.00
2023-02-19T14:58:24.980Z,3036.00
2023-02-19T14:59:24.989Z,3297.00
2023-02-19T15:00:24.970Z,1156.00
2023-02-19T15:01:25.029Z,2009.00
2023-02-19T15:02:24.945Z,3860.00
2023-02-19T15:03:24.930Z,7592.00
2023-02-19T15:04:24.948Z,2459.00
2023-02-19T15:05:24.935Z,11390.00
2023-02-19T15:06:24.912Z,7819.00
2023-02-19T15:07:24.877Z,4000.00
2023-02-19T15:08:24.880Z,5732.00
2023-02-19T15:09:24.855Z,4413.00
2023-02-19T15:10:24.865Z,1767.00
2023-02-19T15:11:24.984Z,865.00
2023-02-19T15:12:24.842Z,1431.00
2023-02-19T15:13:24.843Z,4225.00
2023-02-19T15:14:24.825Z,5403.00
2023-02-19T15:15:24.815Z,3062.00
2023-02-19T15:16:25.902Z,3692.00
2023-02-19T15:17:24.782Z,1435.00
2023-02-19T15:18:24.776Z,1634.00
2023-02-19T15:19:24.788Z,6131.00
2023-02-19T15:20:24.762Z,5117.00
2023-02-19T15:21:24.757Z,2867.00
2023-02-19T15:22:24.756Z,961.00
2023-02-19T15:23:24.700Z,3337.00
2023-02-19T15:24:24.699Z,4186.00
2023-02-19T15:25:24.684Z,1623.00
2023-02-19T15:26:24.696Z,1684.00
2023-02-19T15:27:24.671Z,3385.00
2023-02-19T15:28:24.676Z,2050.00
2023-02-19T15:29:24.641Z,1221.00
2023-02-19T15:30:24.745Z,1131.00
2023-02-19T15:31:24.741Z,3644.00
2023-02-19T15:32:24.668Z,5471.00
2023-02-19T15:33:24.600Z,1060.00
2023-02-19T15:34:24.681Z,1709.00
2023-02-19T15:35:24.614Z,7527.00
2023-02-19T15:36:24.562Z,4598.00
2023-02-19T15:37:24.581Z,2573.00
2023-02-19T15:38:24.593Z,2262.00
2023-02-19T15:39:24.553Z,1414.00
2023-02-19T15:40:24.539Z,847.00
2023-02-19T15:41:24.527Z,1872.00
2023-02-19T15:42:24.521Z,1518.00
2023-02-19T15:43:24.491Z,1225.00
2023-02-19T15:44:25.128Z,1108.00
2023-02-19T15:45:24.501Z,930.00
2023-02-19T15:46:24.517Z,1114.00
2023-02-19T15:47:24.491Z,852.00
2023-02-19T15:48:24.469Z,786.00
2023-02-19T15:49:24.446Z,891.00
2023-02-19T15:50:24.456Z,756.00
2023-02-19T15:51:24.421Z,1136.00
2023-02-19T15:52:24.400Z,1059.00
2023-02-19T15:53:24.439Z,808.00
2023-02-19T15:54:27.139Z,767.00
2023-02-19T15:55:24.379Z,752.00
2023-02-19T15:56:24.354Z,758.00
2023-02-19T15:57:24.358Z,731.00
2023-02-19T15:58:24.336Z,682.00
2023-02-19T15:59:24.318Z,695.00
2023-02-19T16:00:24.448Z,616.00
2023-02-19T16:01:24.483Z,564.00
2023-02-19T16:02:25.798Z,555.00
2023-02-19T16:03:24.323Z,542.00
2023-02-19T16:04:24.276Z,532.00
2023-02-19T16:05:24.306Z,506.00
2023-02-19T16:06:24.244Z,475.00
2023-02-19T16:07:24.258Z,456.00
2023-02-19T16:08:24.408Z,428.00
2023-02-19T16:09:24.238Z,398.00
2023-02-19T16:10:24.243Z,376.00
2023-02-19T16:11:24.243Z,350.00
2023-02-19T16:12:24.185Z,322.00
2023-02-19T16:13:24.208Z,311.00
2023-02-19T16:14:24.191Z,291.00
2023-02-19T16:15:24.184Z,273.00
2023-02-19T16:16:24.198Z,253.00
2023-02-19T16:17:24.210Z,228.00
2023-02-19T16:18:24.129Z,218.00
2023-02-19T16:19:24.124Z,218.00
2023-02-19T16:20:24.101Z,207.00
2023-02-19T16:21:24.090Z,193.00
2023-02-19T16:22:24.143Z,170.00
2023-02-19T16:23:24.156Z,155.00
2023-02-19T16:24:24.056Z,141.00
2023-02-19T16:25:24.064Z,127.00
2023-02-19T16:26:24.151Z,119.00
2023-02-19T16:27:24.031Z,112.00
2023-02-19T16:28:24.033Z,102.00
2023-02-19T16:29:24.050Z,100.00
2023-02-19T16:30:24.020Z,80.00
2023-02-19T16:31:24.104Z,77.00
2023-02-19T16:32:24.506Z,70.00
2023-02-19T16:33:23.982Z,66.00
2023-02-19T16:34:23.937Z,59.00
2023-02-19T16:35:23.941Z,49.00
2023-02-19T16:36:23.943Z,45.00
2023-02-19T16:37:23.928Z,40.00
2023-02-19T16:38:23.957Z,35.00
2023-02-19T16:39:23.916Z,25.00
2023-02-19T16:40:23.879Z,21.00
2023-02-19T16:41:23.950Z,18.00
2023-02-19T16:42:23.876Z,18.00
2023-02-19T16:43:23.871Z,18.00
2023-02-19T16:44:23.863Z,18.00
2023-02-19T16:45:25.928Z,12.00
2023-02-19T16:46:23.826Z,8.00
2023-02-19T16:47:23.846Z,10.00
2023-02-19T16:48:23.834Z,7.00
2023-02-19T16:49:23.791Z,8.00
2023-02-19T16:50:23.817Z,5.00
2023-02-19T16:51:23.784Z,5.00
2023-02-19T16:52:23.754Z,3.00
2023-02-19T16:53:23.778Z,3.00
2023-02-19T16:54:23.757Z,2.00
2023-02-19T16:55:23.749Z,2.00
2023-02-19T16:56:23.743Z,2.00
2023-02-19T16:57:23.718Z,1.00
2023-02-19T16:58:23.704Z,1.00
2023-02-19T16:59:23.690Z,1.00
2023-02-19T17:00:23.677Z,1.00
2023-02-19T17:01:23.728Z,0.00
2023-02-19T17:02:23.719Z,0.00
2023-02-19T17:03:23.742Z,0.00
2023-02-19T17:04:23.697Z,0.00
2023-02-19T17:05:23.700Z,0.00
2023-02-19T17:06:23.666Z,0.00
2023-02-19T17:07:23.623Z,1.00
2023-02-19T17:08:23.724Z,0.00
2023-02-19T17:09:23.641Z,0.00
2023-02-19T17:10:23.611Z,0.00
2023-02-19T17:11:23.564Z,1.00
2023-02-19T17:12:23.600Z,0.00
2023-02-19T17:13:23.611Z,0.00